createdAt,value
2022-09-03T00:02:17.378Z,1.20
2022-09-03T00:04:54.322Z,1.37
2022-09-03T00:07:33.365Z,1.50
2022-09-03T00:10:05.746Z,1.27
2022-09-03T00:12:39.437Z,1.50
2022-09-03T00:15:11.637Z,1.30
2022-09-03T00:17:43.533Z,1.43
2022-09-03T00:20:16.821Z,1.30
2022-09-03T00:22:48.933Z,1.50
2022-09-03T00:25:24.985Z,1.60
2022-09-03T00:27:57.844Z,1.30
2022-09-03T00:30:28.034Z,1.23
2022-09-03T00:33:01.929Z,1.33
2022-09-03T00:35:34.129Z,1.30
2022-09-03T00:38:02.249Z,1.27
2022-09-03T00:40:45.565Z,1.20
2022-09-03T00:43:24.109Z,1.40
2022-09-03T00:46:03.226Z,1.33
2022-09-03T00:48:35.124Z,1.27
2022-09-03T00:51:20.440Z,1.17
2022-09-03T00:53:58.193Z,1.37
2022-09-03T00:56:33.529Z,1.27
2022-09-03T00:59:12.812Z,1.50
2022-09-03T01:01:56.757Z,1.40
2022-09-03T01:04:31.860Z,1.40
2022-09-03T01:07:08.929Z,1.30
2022-09-03T01:09:49.071Z,1.47
2022-09-03T01:12:25.416Z,1.30
2022-09-03T01:15:04.921Z,1.33
2022-09-03T01:17:44.100Z,1.60
2022-09-03T01:20:32.632Z,1.40
2022-09-03T01:23:30.852Z,1.30
2022-09-03T01:26:14.728Z,1.30
2022-09-03T01:28:54.851Z,1.57
2022-09-03T01:31:31.153Z,1.20
2022-09-03T01:34:11.487Z,1.50
2022-09-03T01:36:48.403Z,1.40
2022-09-03T01:39:27.934Z,1.30
2022-09-03T01:42:20.868Z,1.40
2022-09-03T01:45:09.641Z,1.30
2022-09-03T01:47:51.822Z,1.30
2022-09-03T01:50:45.479Z,1.53
2022-09-03T01:53:30.199Z,1.63
2022-09-03T01:56:13.319Z,1.40
2022-09-03T01:58:45.404Z,1.50
2022-09-03T02:01:21.036Z,1.23
2022-09-03T02:03:50.865Z,1.47
2022-09-03T02:06:20.667Z,1.33
2022-09-03T02:08:48.875Z,1.60
2022-09-03T02:11:17.499Z,1.50
2022-09-03T02:13:48.731Z,1.40
2022-09-03T02:16:21.244Z,1.40
2022-09-03T02:18:52.211Z,1.60
2022-09-03T02:21:22.475Z,1.60
2022-09-03T02:23:50.956Z,1.30
2022-09-03T02:26:22.399Z,1.40
2022-09-03T02:28:51.851Z,1.50
2022-09-03T02:31:21.575Z,1.37
2022-09-03T02:33:50.871Z,1.60
2022-09-03T02:36:22.450Z,1.60
2022-09-03T02:38:50.554Z,1.80
2022-09-03T02:41:18.595Z,1.50
2022-09-03T02:43:51.519Z,1.70
2022-09-03T02:46:27.146Z,1.67
2022-09-03T02:48:55.318Z,2.10
2022-09-03T02:51:23.484Z,1.60
2022-09-03T02:53:51.690Z,1.37
2022-09-03T02:56:19.952Z,1.80
2022-09-03T02:58:47.978Z,1.70
2022-09-03T03:01:23.655Z,1.43
2022-09-03T03:03:54.138Z,1.50
2022-09-03T03:06:22.543Z,1.37
2022-09-03T03:08:51.392Z,1.50
2022-09-03T03:11:20.249Z,1.57
2022-09-03T03:13:48.473Z,1.43
2022-09-03T03:16:17.930Z,1.33
2022-09-03T03:18:47.022Z,1.77
2022-09-03T03:21:18.653Z,1.40
2022-09-03T03:23:46.839Z,2.17
2022-09-03T03:26:18.469Z,2.30
2022-09-03T03:28:48.721Z,3.13
2022-09-03T03:31:18.598Z,4.73
2022-09-03T03:33:51.402Z,6.47
2022-09-03T03:36:21.118Z,7.13
2022-09-03T03:38:49.125Z,8.03
2022-09-03T03:41:19.713Z,8.53
2022-09-03T03:43:47.777Z,7.57
2022-09-03T03:46:16.071Z,8.30
2022-09-03T03:48:44.105Z,8.10
2022-09-03T03:51:12.393Z,8.43
2022-09-03T03:53:41.921Z,7.60
2022-09-03T03:56:12.191Z,7.60
2022-09-03T03:58:42.446Z,6.87
2022-09-03T04:01:12.093Z,6.50
2022-09-03T04:03:40.502Z,6.80
2022-09-03T04:06:09.204Z,6.60
2022-09-03T04:08:38.669Z,7.27
2022-09-03T04:11:09.752Z,6.10
2022-09-03T04:13:39.260Z,7.37
2022-09-03T04:16:09.935Z,6.00
2022-09-03T04:18:39.472Z,5.40
2022-09-03T04:21:09.192Z,5.07
2022-09-03T04:23:39.024Z,5.37
2022-09-03T04:26:09.998Z,5.40
2022-09-03T04:28:38.304Z,5.00
2022-09-03T04:31:08.757Z,4.07
2022-09-03T04:33:39.104Z,4.50
2022-09-03T04:36:09.106Z,4.60
2022-09-03T04:38:39.086Z,4.00
2022-09-03T04:41:10.112Z,3.23
2022-09-03T04:43:38.705Z,2.80
2022-09-03T04:46:16.216Z,2.70
2022-09-03T04:48:48.533Z,2.87
2022-09-03T04:51:17.800Z,2.50
2022-09-03T04:53:47.657Z,2.17
2022-09-03T04:56:19.197Z,2.60
2022-09-03T04:58:49.200Z,2.40
2022-09-03T05:01:21.021Z,2.60
2022-09-03T05:03:50.991Z,2.50
2022-09-03T05:06:19.127Z,2.10
2022-09-03T05:08:50.293Z,2.27
2022-09-03T05:11:20.899Z,2.37
2022-09-03T05:13:49.824Z,2.10
2022-09-03T05:16:19.260Z,2.20
2022-09-03T05:18:48.207Z,2.13
2022-09-03T05:21:18.230Z,1.97
2022-09-03T05:23:48.268Z,2.97
2022-09-03T05:26:17.952Z,2.00
2022-09-03T05:28:47.999Z,2.00
2022-09-03T05:31:18.214Z,2.23
2022-09-03T05:33:48.051Z,1.90
2022-09-03T05:36:18.080Z,2.27
2022-09-03T05:38:47.503Z,1.80
2022-09-03T05:41:17.135Z,2.10
2022-09-03T05:43:51.950Z,1.80
2022-09-03T05:46:20.094Z,1.97
2022-09-03T05:48:48.596Z,1.90
2022-09-03T05:51:18.098Z,1.60
2022-09-03T05:53:47.638Z,2.43
2022-09-03T05:56:18.089Z,1.50
2022-09-03T05:58:48.920Z,2.00
2022-09-03T06:01:18.528Z,1.50
2022-09-03T06:03:47.802Z,1.60
2022-09-03T06:06:16.552Z,1.70
2022-09-03T06:08:45.026Z,1.40
2022-09-03T06:11:13.128Z,1.40
2022-09-03T06:13:41.122Z,1.40
2022-09-03T06:16:10.661Z,1.23
2022-09-03T06:18:38.654Z,1.50
2022-09-03T06:21:08.452Z,1.10
2022-09-03T06:23:37.130Z,1.30
2022-09-03T06:26:09.350Z,1.30
2022-09-03T06:28:40.542Z,1.27
2022-09-03T06:31:13.685Z,1.10
2022-09-03T06:33:42.770Z,1.13
2022-09-03T06:36:13.090Z,1.27
2022-09-03T06:38:41.750Z,1.30
2022-09-03T06:41:11.390Z,1.20
2022-09-03T06:43:41.934Z,1.40
2022-09-03T06:46:13.585Z,1.10
2022-09-03T06:48:43.345Z,1.00
2022-09-03T06:51:15.597Z,1.10
2022-09-03T06:53:45.765Z,1.07
2022-09-03T06:56:15.774Z,1.10
2022-09-03T06:58:45.434Z,1.00
2022-09-03T07:01:17.377Z,0.93
2022-09-03T07:03:47.015Z,1.10
2022-09-03T07:06:17.037Z,1.00
2022-09-03T07:08:46.259Z,0.93
2022-09-03T07:11:16.453Z,1.03
2022-09-03T07:13:46.735Z,1.23
2022-09-03T07:16:17.963Z,1.17
2022-09-03T07:18:46.654Z,0.90
2022-09-03T07:21:16.501Z,1.13
2022-09-03T07:23:45.299Z,1.20
2022-09-03T07:26:15.913Z,1.00
2022-09-03T07:28:46.014Z,1.00
2022-09-03T07:31:19.617Z,0.90
2022-09-03T07:33:48.193Z,1.10
2022-09-03T07:36:18.094Z,1.00
2022-09-03T07:38:47.041Z,0.80
2022-09-03T07:41:19.311Z,0.90
2022-09-03T07:43:57.365Z,1.20
2022-09-03T07:46:28.404Z,0.90
2022-09-03T07:48:58.029Z,1.13
2022-09-03T07:51:28.350Z,1.00
2022-09-03T07:53:58.282Z,1.13
2022-09-03T07:56:28.032Z,1.30
2022-09-03T07:58:56.424Z,1.00
2022-09-03T08:01:28.505Z,0.90
2022-09-03T08:03:56.916Z,1.00
2022-09-03T08:06:26.673Z,0.80
2022-09-03T08:09:04.234Z,1.00
2022-09-03T08:11:35.085Z,1.10
2022-09-03T08:14:06.630Z,0.90
2022-09-03T08:16:37.723Z,0.90
2022-09-03T08:19:06.466Z,1.30
2022-09-03T08:21:34.779Z,0.97
2022-09-03T08:24:03.506Z,0.90
2022-09-03T08:26:32.925Z,1.17
2022-09-03T08:29:01.217Z,0.80
2022-09-03T08:31:30.467Z,0.90
2022-09-03T08:34:06.668Z,1.13
2022-09-03T08:36:37.093Z,1.00
2022-09-03T08:39:10.255Z,1.13
2022-09-03T08:42:01.062Z,0.90
2022-09-03T08:44:31.478Z,1.30
2022-09-03T08:47:03.166Z,1.00
2022-09-03T08:49:40.837Z,1.00
2022-09-03T08:52:19.669Z,0.90
2022-09-03T08:54:50.609Z,0.90
2022-09-03T08:57:21.910Z,1.00
2022-09-03T08:59:55.674Z,0.87
2022-09-03T09:02:33.975Z,0.80
2022-09-03T09:05:14.184Z,0.83
2022-09-03T09:07:53.265Z,0.80
2022-09-03T09:10:27.514Z,1.10
2022-09-03T09:13:06.568Z,1.00
2022-09-03T09:15:43.872Z,0.50
2022-09-03T09:18:20.149Z,0.80
2022-09-03T09:20:52.245Z,0.80
2022-09-03T09:23:28.952Z,0.60
2022-09-03T09:26:00.633Z,0.90
2022-09-03T09:28:34.798Z,1.00
2022-09-03T09:31:05.520Z,0.70
2022-09-03T09:33:35.544Z,0.77
2022-09-03T09:36:09.384Z,0.93
2022-09-03T09:38:40.074Z,0.70
2022-09-03T09:41:13.420Z,1.00
2022-09-03T09:43:42.164Z,0.73
2022-09-03T09:46:14.449Z,0.77
2022-09-03T09:48:50.297Z,0.60
2022-09-03T09:51:23.431Z,1.03
2022-09-03T09:54:03.251Z,0.90
2022-09-03T09:56:31.729Z,0.77
2022-09-03T09:59:07.816Z,0.73
2022-09-03T10:01:38.925Z,0.63
2022-09-03T10:04:12.117Z,0.52
2022-09-03T10:06:57.838Z,0.55
2022-09-03T10:09:31.591Z,0.60
2022-09-03T10:12:12.543Z,0.73
2022-09-03T10:14:47.668Z,0.57
2022-09-03T10:17:24.924Z,0.50
2022-09-03T10:20:31.284Z,0.90
2022-09-03T10:23:04.284Z,0.70
2022-09-03T10:25:42.863Z,0.70
2022-09-03T10:28:13.391Z,0.73
2022-09-03T10:31:03.275Z,0.43
2022-09-03T10:33:36.263Z,0.70
2022-09-03T10:36:13.510Z,0.95
2022-09-03T10:38:44.508Z,0.60
2022-09-03T10:41:26.209Z,0.70
2022-09-03T10:44:16.334Z,0.80
2022-09-03T10:46:59.570Z,0.80
2022-09-03T10:49:43.434Z,0.70
2022-09-03T10:52:17.567Z,0.40
2022-09-03T10:55:11.842Z,0.57
2022-09-03T10:57:49.555Z,0.57
2022-09-03T11:00:19.618Z,0.60
2022-09-03T11:03:12.770Z,0.68
2022-09-03T11:05:45.351Z,0.55
2022-09-03T11:08:18.514Z,0.60
2022-09-03T11:10:54.898Z,0.70
2022-09-03T11:13:27.845Z,0.68
2022-09-03T11:16:00.583Z,0.55
2022-09-03T11:18:33.847Z,0.60
2022-09-03T11:21:12.351Z,0.30
2022-09-03T11:23:44.440Z,0.40
2022-09-03T11:26:17.866Z,0.47
2022-09-03T11:28:56.117Z,0.70
2022-09-03T11:31:32.753Z,0.45
2022-09-03T11:34:07.006Z,0.50
2022-09-03T11:36:38.135Z,0.40
2022-09-03T11:39:19.254Z,0.50
2022-09-03T11:41:59.487Z,0.52
2022-09-03T11:44:37.986Z,0.60
2022-09-03T11:47:22.153Z,0.60
2022-09-03T11:49:52.220Z,0.63
2022-09-03T11:52:30.485Z,0.50
2022-09-03T11:54:59.013Z,0.70
2022-09-03T11:57:30.736Z,0.60
2022-09-03T12:00:11.787Z,0.55
2022-09-03T12:02:46.325Z,0.68
2022-09-03T12:05:31.627Z,0.50
2022-09-03T12:08:17.652Z,0.40
2022-09-03T12:10:58.961Z,0.40
2022-09-03T12:13:51.689Z,0.40
2022-09-03T12:16:52.745Z,0.40
2022-09-03T12:19:28.824Z,0.43
2022-09-03T12:21:57.635Z,0.50
2022-09-03T12:24:37.861Z,0.50
2022-09-03T12:27:08.032Z,0.65
2022-09-03T12:29:37.870Z,0.50
2022-09-03T12:32:19.506Z,0.50
2022-09-03T12:34:50.437Z,0.35
2022-09-03T12:40:21.261Z,0.50
2022-09-03T12:42:50.476Z,0.73
2022-09-03T12:45:23.523Z,0.50
2022-09-03T12:47:53.260Z,0.90
2022-09-03T12:50:23.331Z,0.52
2022-09-03T12:52:54.870Z,0.65
2022-09-03T12:55:30.605Z,0.68
2022-09-03T12:58:06.945Z,0.57
2022-09-03T13:00:42.652Z,0.45
2022-09-03T13:03:18.129Z,0.45
2022-09-03T13:05:49.131Z,0.47
2022-09-03T13:08:22.587Z,0.50
2022-09-03T13:10:54.911Z,0.63
2022-09-03T13:13:26.552Z,0.52
2022-09-03T13:16:41.566Z,1.08
2022-09-03T13:19:18.919Z,0.50
2022-09-03T13:21:55.027Z,0.40
2022-09-03T13:24:41.197Z,0.60
2022-09-03T13:27:18.573Z,0.55
2022-09-03T13:30:03.277Z,0.40
2022-09-03T13:32:43.172Z,0.75
2022-09-03T13:35:18.675Z,0.80
2022-09-03T13:37:49.205Z,0.32
2022-09-03T13:40:24.279Z,0.50
2022-09-03T13:42:56.222Z,0.75
2022-09-03T13:45:32.937Z,0.63
2022-09-03T13:48:36.691Z,0.70
2022-09-03T13:51:12.879Z,0.70
2022-09-03T13:53:58.858Z,0.50
2022-09-03T13:56:37.199Z,0.60
2022-09-03T13:59:10.690Z,0.77
2022-09-03T14:01:56.933Z,0.50
2022-09-03T14:04:36.286Z,0.40
2022-09-03T14:07:11.036Z,0.60
2022-09-03T14:09:55.470Z,0.50
2022-09-03T14:12:32.662Z,0.70
2022-09-03T14:15:06.152Z,0.75
2022-09-03T14:17:42.624Z,0.60
2022-09-03T14:20:19.950Z,0.65
2022-09-03T14:22:54.406Z,0.60
2022-09-03T14:25:24.468Z,0.70
2022-09-03T14:27:53.155Z,0.50
2022-09-03T14:30:33.202Z,0.60
2022-09-03T14:33:11.279Z,0.30
2022-09-03T14:36:04.159Z,0.70
2022-09-03T14:39:06.978Z,0.45
2022-09-03T14:41:55.509Z,0.60
2022-09-03T14:44:36.202Z,0.73
2022-09-03T14:47:14.491Z,0.40
2022-09-03T14:49:55.031Z,0.50
2022-09-03T14:52:54.054Z,0.63
2022-09-03T14:55:38.062Z,0.40
2022-09-03T14:58:26.874Z,0.73
2022-09-03T15:01:01.342Z,0.40
2022-09-03T15:04:09.810Z,0.30
2022-09-03T15:06:46.498Z,0.40
2022-09-03T15:09:28.786Z,0.60
2022-09-03T15:12:01.363Z,0.52
2022-09-03T15:14:36.746Z,0.50
2022-09-03T15:17:25.375Z,0.50
2022-09-03T15:20:04.548Z,0.60
2022-09-03T15:23:04.078Z,0.60
2022-09-03T15:25:46.877Z,0.70
2022-09-03T15:28:23.761Z,0.50
2022-09-03T15:30:57.918Z,0.52
2022-09-03T15:33:35.110Z,0.77
2022-09-03T15:36:16.218Z,0.77
2022-09-03T15:38:51.066Z,1.00
2022-09-03T15:41:42.437Z,0.50
2022-09-03T15:44:19.149Z,0.68
2022-09-03T15:46:56.721Z,0.88
2022-09-03T15:49:48.237Z,0.60
2022-09-03T15:52:30.042Z,0.70
2022-09-03T15:55:03.188Z,0.50
2022-09-03T15:57:39.344Z,0.40
2022-09-03T16:00:12.158Z,0.60
2022-09-03T16:02:46.981Z,0.60
2022-09-03T16:05:19.557Z,0.88
2022-09-03T16:08:06.295Z,0.40
2022-09-03T16:10:42.530Z,0.68
2022-09-03T16:13:28.717Z,0.70
2022-09-03T16:16:03.115Z,0.68
2022-09-03T16:18:36.801Z,0.63
2022-09-03T16:21:10.261Z,0.85
2022-09-03T16:23:47.665Z,0.60
2022-09-03T16:26:22.421Z,0.73
2022-09-03T16:28:58.500Z,0.90
2022-09-03T16:31:38.152Z,0.75
2022-09-03T16:34:18.490Z,0.98
2022-09-03T16:36:56.598Z,0.65
2022-09-03T16:39:37.633Z,0.60
2022-09-03T16:42:12.882Z,0.90
2022-09-03T16:44:52.217Z,0.85
2022-09-03T16:47:33.309Z,1.08
2022-09-03T16:50:12.222Z,0.80
2022-09-03T16:52:53.849Z,0.88
2022-09-03T16:55:26.156Z,0.85
2022-09-03T16:58:10.201Z,0.60
2022-09-03T17:00:54.316Z,0.70
2022-09-03T17:03:48.176Z,1.20
2022-09-03T17:06:32.555Z,1.10
2022-09-03T17:09:10.812Z,0.80
2022-09-03T17:11:51.776Z,0.85
2022-09-03T17:14:39.659Z,0.90
2022-09-03T17:17:20.664Z,0.98
2022-09-03T17:19:53.576Z,0.88
2022-09-03T17:22:34.159Z,1.23
2022-09-03T17:25:06.954Z,1.60
2022-09-03T17:27:49.891Z,0.93
2022-09-03T17:30:23.260Z,1.20
2022-09-03T17:33:24.927Z,1.10
2022-09-03T17:36:04.323Z,1.30
2022-09-03T17:38:59.044Z,1.20
2022-09-03T17:41:36.452Z,1.08
2022-09-03T17:44:13.696Z,1.35
2022-09-03T17:46:48.103Z,1.47
2022-09-03T17:49:22.714Z,1.20
2022-09-03T17:51:59.467Z,1.17
2022-09-03T17:54:39.247Z,1.13
2022-09-03T17:57:16.711Z,1.57
2022-09-03T17:59:52.648Z,1.60
2022-09-03T18:02:30.214Z,1.17
2022-09-03T18:05:07.979Z,1.40
2022-09-03T18:07:45.226Z,1.10
2022-09-03T18:10:24.431Z,1.23
2022-09-03T18:13:03.460Z,1.30
2022-09-03T18:15:37.559Z,1.30
2022-09-03T18:18:11.175Z,1.33
2022-09-03T18:21:24.025Z,1.53
2022-09-03T18:24:17.574Z,1.50
2022-09-03T18:27:07.790Z,1.70
2022-09-03T18:30:03.842Z,1.33
2022-09-03T18:32:49.894Z,1.70
2022-09-03T18:35:35.827Z,1.50
2022-09-03T18:38:23.898Z,1.50
2022-09-03T18:41:15.074Z,1.23
2022-09-03T18:44:12.201Z,1.30
2022-09-03T18:48:02.093Z,1.10
2022-09-03T18:50:17.718Z,1.23
2022-09-03T18:53:10.453Z,1.30
2022-09-03T18:56:09.854Z,1.23
2022-09-03T18:59:04.393Z,1.20
2022-09-03T19:01:52.904Z,1.17
2022-09-03T19:04:49.135Z,0.93
2022-09-03T19:07:43.741Z,1.40
2022-09-03T19:10:34.374Z,1.60
2022-09-03T19:13:41.246Z,1.33
2022-09-03T19:16:31.814Z,1.50
2022-09-03T19:19:33.762Z,1.23
2022-09-03T19:22:26.898Z,1.40
2022-09-03T19:25:18.070Z,1.50
2022-09-03T19:28:21.298Z,1.40
2022-09-03T19:31:24.442Z,1.33
2022-09-03T19:34:21.668Z,1.70
2022-09-03T19:37:18.806Z,1.20
2022-09-03T19:40:21.778Z,1.50
2022-09-03T19:43:16.237Z,1.60
2022-09-03T19:46:12.868Z,1.70
2022-09-03T19:49:13.251Z,1.43
2022-09-03T19:52:05.974Z,1.50
2022-09-03T19:54:52.154Z,1.27
2022-09-03T19:57:38.974Z,1.70
2022-09-03T20:00:31.365Z,1.40
2022-09-03T20:03:21.168Z,1.27
2022-09-03T20:06:10.933Z,1.50
2022-09-03T20:08:57.355Z,1.70
2022-09-03T20:11:27.749Z,1.60
2022-09-03T20:14:15.508Z,1.50
2022-09-03T20:16:54.193Z,1.80
2022-09-03T20:19:35.798Z,1.70
2022-09-03T20:22:16.739Z,1.60
2022-09-03T20:24:56.769Z,1.90
2022-09-03T20:27:36.517Z,1.53
2022-09-03T20:30:07.781Z,1.53
2022-09-03T20:33:11.244Z,1.70
2022-09-03T20:35:53.864Z,1.80
2022-09-03T20:38:33.618Z,1.90
2022-09-03T20:41:13.988Z,1.50
2022-09-03T20:44:09.452Z,2.20
2022-09-03T20:46:47.924Z,1.70
2022-09-03T20:49:26.824Z,1.93
2022-09-03T20:52:06.430Z,1.70
2022-09-03T20:54:38.520Z,1.77
2022-09-03T20:57:26.793Z,1.80
2022-09-03T21:00:06.013Z,2.20
2022-09-03T21:02:48.671Z,1.63
2022-09-03T21:05:23.833Z,2.70
2022-09-03T21:08:04.036Z,2.80
2022-09-03T21:10:38.873Z,2.20
2022-09-03T21:13:17.615Z,2.70
2022-09-03T21:15:57.183Z,1.90
2022-09-03T21:18:34.574Z,2.20
2022-09-03T21:21:09.767Z,1.83
2022-09-03T21:23:43.119Z,2.03
2022-09-03T21:26:16.786Z,2.17
2022-09-03T21:28:49.518Z,1.80
2022-09-03T21:31:22.919Z,2.10
2022-09-03T21:33:56.566Z,2.03
2022-09-03T21:36:30.189Z,1.87
2022-09-03T21:39:06.690Z,2.00
2022-09-03T21:41:41.003Z,1.87
2022-09-03T21:44:14.469Z,2.10
2022-09-03T21:46:50.893Z,2.20
2022-09-03T21:49:24.052Z,1.77
2022-09-03T21:51:59.001Z,2.27
2022-09-03T21:54:30.771Z,1.83
2022-09-03T21:57:14.131Z,1.87
2022-09-03T22:00:07.353Z,1.90
2022-09-03T22:02:36.317Z,2.07
2022-09-03T22:05:05.671Z,1.87
2022-09-03T22:07:53.197Z,2.17
2022-09-03T22:10:27.637Z,2.10
2022-09-03T22:13:09.297Z,1.87
2022-09-03T22:15:38.877Z,2.00
2022-09-03T22:18:15.557Z,2.10
2022-09-03T22:20:52.656Z,2.10
2022-09-03T22:23:26.499Z,2.00
2022-09-03T22:26:03.191Z,1.87
2022-09-03T22:28:37.823Z,1.87
2022-09-03T22:31:14.273Z,1.53
2022-09-03T22:33:51.131Z,2.00
2022-09-03T22:36:28.418Z,1.90
2022-09-03T22:39:18.843Z,1.80
2022-09-03T22:42:04.517Z,1.90
2022-09-03T22:44:54.885Z,1.90
2022-09-03T22:47:29.882Z,1.70
2022-09-03T22:50:09.633Z,1.90
2022-09-03T22:52:42.812Z,1.97
2022-09-03T22:55:18.392Z,2.03
2022-09-03T22:57:55.828Z,1.90
2022-09-03T23:00:24.416Z,1.80
2022-09-03T23:02:58.609Z,2.00
2022-09-03T23:05:35.740Z,2.00
2022-09-03T23:08:10.569Z,1.43
2022-09-03T23:10:53.603Z,1.90
2022-09-03T23:13:26.552Z,1.77
2022-09-03T23:16:02.324Z,1.90
2022-09-03T23:18:33.354Z,1.80
2022-09-03T23:21:07.924Z,2.07
2022-09-03T23:23:39.684Z,2.03
2022-09-03T23:26:15.238Z,1.90
2022-09-03T23:28:49.162Z,2.00
2022-09-03T23:31:21.386Z,1.93
2022-09-03T23:33:52.243Z,1.80
2022-09-03T23:36:57.758Z,1.90
2022-09-03T23:39:39.127Z,2.00
2022-09-03T23:42:15.808Z,1.90
2022-09-03T23:45:03.039Z,1.90
2022-09-03T23:47:40.907Z,1.70
2022-09-03T23:50:25.241Z,1.90
2022-09-03T23:53:17.259Z,1.90
2022-09-03T23:55:57.197Z,1.70
2022-09-03T23:58:37.280Z,1.70
